Alva, Oklahoma
Current Conditions -  °F | °C
As of 3:55 AM on Sunday 23 Nov 2014 (Local Time) from KAVK Reporting Station
Broken Clouds Broken Clouds  
Wind Chill: 43°   Ceiling: 900
Heat Index: 48°   Visibility: 10mi
Dew Point: 48°   Wind: 14mph
Humidity: 100%   Direction: 190°S
Pressure: 29.43"   Gusts: NA
Location:  36.8°N, 98.67°W
Report Text: KAVK 230955Z AUTO 19012KT 10SM BKN009 09/09 A2943 RMK AO2
Loading
Personal Weather Stations






























Interactive Weather Map New forecast layout! Learn more

10-Day Weather Forecast

Advertisements
Track Severe Weather on mobile